createdAt,value
2018-08-09T00:03:25.483Z,76.50
2018-08-09T00:08:28.826Z,77.60
2018-08-09T00:13:32.204Z,75.40
2018-08-09T00:18:35.493Z,78.80
2018-08-09T00:23:38.783Z,79.30
2018-08-09T00:28:42.078Z,78.70
2018-08-09T00:33:45.338Z,77.30
2018-08-09T00:43:51.605Z,74.40
2018-08-09T00:48:55.106Z,74.80
2018-08-09T00:53:58.833Z,74.70
2018-08-09T00:59:02.604Z,76.10
2018-08-09T01:04:06.248Z,75.90
2018-08-09T01:09:14.334Z,78.50
2018-08-09T01:19:21.433Z,76.30
2018-08-09T01:24:24.964Z,77.90
2018-08-09T01:29:28.269Z,76.30
2018-08-09T01:34:31.760Z,76.30
2018-08-09T01:39:35.044Z,77.40
2018-08-09T01:44:38.317Z,77.30
2018-08-09T01:49:41.784Z,78.20
2018-08-09T01:54:45.049Z,77.10
2018-08-09T01:59:48.321Z,77.10
2018-08-09T02:04:51.647Z,77.80
2018-08-09T02:09:55.001Z,78.50
2018-08-09T02:14:58.292Z,78.60
2018-08-09T02:20:01.601Z,78.20
2018-08-09T02:25:05.165Z,77.70
2018-08-09T02:30:08.578Z,77.90
2018-08-09T02:35:11.833Z,78.50
2018-08-09T02:40:15.108Z,78.70
2018-08-09T02:45:18.529Z,79.20
2018-08-09T02:55:24.870Z,79.50
2018-08-09T03:00:28.136Z,80.70
2018-08-09T03:05:31.567Z,79.50
2018-08-09T03:10:34.822Z,80.30
2018-08-09T03:15:38.080Z,79.10
2018-08-09T03:20:41.416Z,79.70
2018-08-09T03:25:44.670Z,80.20
2018-08-09T03:30:48.041Z,79.70
2018-08-09T03:35:51.334Z,80.30
2018-08-09T03:40:54.628Z,81.20
2018-08-09T03:45:57.968Z,82.00
2018-08-09T03:51:01.230Z,82.90
2018-08-09T03:56:04.809Z,83.50
2018-08-09T04:01:08.313Z,84.20
2018-08-09T04:06:11.587Z,81.70
2018-08-09T04:11:15.094Z,82.40
2018-08-09T04:16:18.389Z,81.50
2018-08-09T04:21:22.387Z,82.50
2018-08-09T04:26:25.696Z,83.40
2018-08-09T04:31:29.149Z,82.30
2018-08-09T04:36:32.439Z,83.10
2018-08-09T04:41:35.897Z,82.80
2018-08-09T04:46:39.286Z,83.80
2018-08-09T04:51:42.608Z,83.60
2018-08-09T04:56:45.920Z,84.20
2018-08-09T05:01:49.251Z,83.20
2018-08-09T05:06:52.548Z,84.10
2018-08-09T05:11:55.823Z,83.90
2018-08-09T05:16:59.072Z,82.70
2018-08-09T05:22:02.467Z,82.80
2018-08-09T05:27:05.741Z,81.80
2018-08-09T05:32:09.001Z,81.60
2018-08-09T05:37:12.353Z,81.00
2018-08-09T05:42:15.628Z,81.50
2018-08-09T05:47:18.921Z,80.50
2018-08-09T05:52:22.213Z,80.30
2018-08-09T05:57:25.634Z,79.90
2018-08-09T06:02:28.933Z,79.50
2018-08-09T06:07:32.318Z,79.90
2018-08-09T06:12:35.692Z,78.60
2018-08-09T06:17:38.984Z,79.10
2018-08-09T06:22:42.249Z,78.10
2018-08-09T06:27:45.613Z,77.70
2018-08-09T06:32:49.053Z,77.80
2018-08-09T06:37:52.437Z,77.50
2018-08-09T06:42:55.712Z,77.10
2018-08-09T06:47:59.189Z,77.20
2018-08-09T06:53:02.565Z,76.70
2018-08-09T06:58:06.141Z,76.70
2018-08-09T07:03:09.429Z,74.70
2018-08-09T07:08:13.007Z,74.80
2018-08-09T07:13:16.276Z,74.00
2018-08-09T07:18:19.589Z,72.40
2018-08-09T07:23:22.892Z,73.00
2018-08-09T07:28:26.464Z,72.50
2018-08-09T07:33:29.737Z,71.70
2018-08-09T07:38:33.017Z,69.90
2018-08-09T07:43:36.422Z,68.40
2018-08-09T07:48:39.703Z,68.20
2018-08-09T07:53:42.958Z,64.00
2018-08-09T07:58:46.305Z,61.40
2018-08-09T08:03:49.667Z,62.50
2018-08-09T08:08:53.029Z,59.70
2018-08-09T08:13:56.350Z,57.90
2018-08-09T08:18:59.744Z,57.30
2018-08-09T08:24:03.170Z,55.40
2018-08-09T08:29:06.452Z,53.90
2018-08-09T08:34:09.790Z,54.50
2018-08-09T08:39:13.182Z,54.60
2018-08-09T08:44:16.459Z,54.00
2018-08-09T08:49:19.775Z,54.70
2018-08-09T08:54:23.089Z,54.40
2018-08-09T08:59:26.381Z,53.10
2018-08-09T09:04:29.665Z,53.20
2018-08-09T09:09:33.061Z,50.90
2018-08-09T09:14:36.349Z,51.10
2018-08-09T09:19:39.719Z,50.40
2018-08-09T09:24:43.011Z,49.50
2018-08-09T09:29:46.404Z,49.40
2018-08-09T09:34:49.810Z,48.40
2018-08-09T09:39:53.094Z,49.10
2018-08-09T09:44:56.562Z,46.80
2018-08-09T09:50:00.021Z,47.30
2018-08-09T09:55:03.390Z,46.90
2018-08-09T10:00:12.133Z,45.50
2018-08-09T10:05:15.880Z,45.50
2018-08-09T10:10:19.188Z,46.60
2018-08-09T10:15:22.469Z,45.90
2018-08-09T10:20:25.889Z,45.30
2018-08-09T10:25:29.165Z,45.30
2018-08-09T10:30:32.505Z,44.10
2018-08-09T10:35:35.836Z,44.70
2018-08-09T10:40:39.072Z,44.60
2018-08-09T10:45:42.340Z,43.00
2018-08-09T10:55:48.684Z,42.70
2018-08-09T11:00:51.977Z,42.00
2018-08-09T11:05:55.241Z,43.00
2018-08-09T11:11:02.822Z,41.40
2018-08-09T11:16:06.109Z,42.60
2018-08-09T11:21:09.413Z,41.50
2018-08-09T11:26:12.950Z,42.80
2018-08-09T11:31:16.326Z,41.20
2018-08-09T11:36:19.609Z,41.00
2018-08-09T11:41:23.500Z,41.50
2018-08-09T11:46:26.888Z,40.90
2018-08-09T11:51:30.177Z,42.50
2018-08-09T11:56:33.514Z,41.10
2018-08-09T12:01:36.838Z,41.20
2018-08-09T12:06:40.148Z,41.40
2018-08-09T12:11:43.536Z,38.50
2018-08-09T12:16:46.822Z,39.90
2018-08-09T12:21:50.284Z,39.00
2018-08-09T12:26:53.627Z,38.70
2018-08-09T12:31:57.045Z,38.90
2018-08-09T12:37:00.486Z,38.10
2018-08-09T12:42:03.833Z,37.10
2018-08-09T12:47:07.332Z,37.10
2018-08-09T12:52:10.663Z,37.80
2018-08-09T12:57:13.916Z,37.90
2018-08-09T13:02:17.336Z,37.90
2018-08-09T13:07:20.657Z,37.60
2018-08-09T13:12:23.937Z,36.90
2018-08-09T13:17:27.262Z,35.10
2018-08-09T13:22:30.641Z,35.90
2018-08-09T13:27:33.970Z,35.40
2018-08-09T13:32:37.274Z,35.00
2018-08-09T13:37:40.657Z,34.40
2018-08-09T13:42:44.085Z,35.60
2018-08-09T13:47:47.378Z,35.10
2018-08-09T13:52:50.682Z,35.00
2018-08-09T13:57:54.118Z,35.50
2018-08-09T14:02:57.459Z,34.90
2018-08-09T14:08:00.750Z,34.40
2018-08-09T14:13:04.120Z,34.20
2018-08-09T14:18:07.626Z,34.80
2018-08-09T14:28:14.211Z,34.20
2018-08-09T14:33:17.512Z,32.80
2018-08-09T14:38:20.789Z,32.90
2018-08-09T14:43:24.159Z,32.80
2018-08-09T14:48:27.425Z,32.50
2018-08-09T14:53:30.876Z,32.00
2018-08-09T14:58:34.178Z,31.10
2018-08-09T15:03:37.600Z,31.20
2018-08-09T15:08:40.915Z,31.20
2018-08-09T15:13:44.445Z,31.50
2018-08-09T15:18:47.826Z,31.20
2018-08-09T15:23:51.272Z,31.10
2018-08-09T15:28:54.728Z,31.50
2018-08-09T15:33:58.174Z,31.90
2018-08-09T15:39:01.631Z,33.30
2018-08-09T15:44:04.891Z,32.40
2018-08-09T15:49:08.184Z,32.80
2018-08-09T15:54:11.536Z,32.00
2018-08-09T15:59:14.922Z,32.50
2018-08-09T16:04:18.213Z,33.40
2018-08-09T16:09:21.586Z,34.20
2018-08-09T16:14:24.882Z,34.30
2018-08-09T16:19:28.302Z,31.00
2018-08-09T16:24:31.886Z,31.70
2018-08-09T16:29:35.237Z,29.40
2018-08-09T16:34:38.549Z,29.10
2018-08-09T16:39:41.854Z,29.50
2018-08-09T16:44:45.185Z,29.10
2018-08-09T16:49:48.641Z,29.80
2018-08-09T16:54:51.920Z,29.50
2018-08-09T16:59:55.307Z,29.80
2018-08-09T17:10:01.963Z,29.40
2018-08-09T17:15:08.221Z,30.80
2018-08-09T17:20:21.117Z,30.80
2018-08-09T17:25:24.455Z,31.00
2018-08-09T17:30:28.604Z,30.80
2018-08-09T17:35:31.963Z,39.80
2018-08-09T17:40:35.272Z,42.50
2018-08-09T17:45:38.617Z,44.20
2018-08-09T17:50:42.010Z,45.30
2018-08-09T17:55:45.374Z,45.70
2018-08-09T18:05:51.925Z,47.00
2018-08-09T18:10:55.320Z,47.60
2018-08-09T18:15:58.791Z,48.40
2018-08-09T18:21:02.311Z,48.90
2018-08-09T18:26:05.873Z,49.10
2018-08-09T18:31:09.253Z,49.20
2018-08-09T18:36:12.721Z,49.60
2018-08-09T18:41:16.177Z,49.70
2018-08-09T18:46:19.573Z,50.20
2018-08-09T18:51:23.022Z,50.10
2018-08-09T18:56:26.890Z,50.20
2018-08-09T19:01:30.187Z,49.90
2018-08-09T19:06:33.643Z,49.80
2018-08-09T19:11:36.938Z,50.20
2018-08-09T19:16:40.253Z,50.30
2018-08-09T19:21:43.569Z,50.50
2018-08-09T19:26:46.912Z,50.80
2018-08-09T19:31:50.319Z,50.80
2018-08-09T19:36:53.662Z,51.90
2018-08-09T19:41:56.942Z,51.90
2018-08-09T19:47:00.285Z,52.40
2018-08-09T19:52:03.649Z,52.70
2018-08-09T19:57:06.978Z,52.90
2018-08-09T20:02:10.511Z,53.30
2018-08-09T20:07:13.785Z,53.40
2018-08-09T20:12:17.050Z,54.00
2018-08-09T20:17:20.478Z,53.70
2018-08-09T20:22:23.810Z,53.00
2018-08-09T20:27:27.100Z,53.20
2018-08-09T20:32:30.368Z,53.10
2018-08-09T20:37:33.754Z,53.30
2018-08-09T20:42:37.390Z,53.50
2018-08-09T20:47:41.600Z,53.90
2018-08-09T20:52:46.519Z,54.40
2018-08-09T20:57:50.810Z,54.40
2018-08-09T21:02:55.736Z,54.50
2018-08-09T21:07:59.721Z,55.50
2018-08-09T21:13:03.532Z,55.30
2018-08-09T21:18:07.685Z,55.20
2018-08-09T21:23:11.289Z,55.50
2018-08-09T21:28:15.086Z,56.30
2018-08-09T21:33:20.696Z,56.40
2018-08-09T21:38:24.267Z,57.10
2018-08-09T21:43:27.593Z,57.00
2018-08-09T21:48:30.949Z,57.90
2018-08-09T21:53:34.267Z,58.30
2018-08-09T21:58:37.573Z,57.70
2018-08-09T22:03:40.973Z,58.00
2018-08-09T22:08:49.616Z,57.50
2018-08-09T22:13:58.233Z,58.50
2018-08-09T22:19:06.875Z,58.30
2018-08-09T22:24:10.113Z,58.60
2018-08-09T22:29:13.456Z,58.80
2018-08-09T22:34:16.905Z,59.20
2018-08-09T22:39:20.349Z,59.70
2018-08-09T22:44:23.837Z,60.00
2018-08-09T22:49:27.131Z,60.10
2018-08-09T22:54:30.548Z,60.50
2018-08-09T22:59:33.838Z,62.00
2018-08-09T23:04:37.133Z,61.30
2018-08-09T23:09:40.493Z,62.40
2018-08-09T23:14:43.881Z,62.10
2018-08-09T23:19:47.206Z,62.90
2018-08-09T23:24:50.537Z,63.20
2018-08-09T23:29:53.946Z,64.10
2018-08-09T23:34:57.368Z,64.70
2018-08-09T23:40:00.687Z,66.20
2018-08-09T23:45:04.316Z,68.50
2018-08-09T23:50:09.321Z,72.40
